Lancaster, Minnesota
Current Conditions -  °F | °C
As of 11:13 AM on Friday 24 Oct 2014 (Local Time) from KHCO Reporting Station
NA  
Wind Chill: 57°   Ceiling: NA
Heat Index: 57°   Visibility: 10mi
Dew Point: 45°   Wind: 7mph
Humidity: 63%   Direction: 210°SSW
Pressure: 29.72"   Gusts: NA
Location:  48.86°N, 96.8°W
Report Text: KHCO 241613Z AUTO 21006KT 10SM 14/07 A2972 RMK AO2
Loading
Personal Weather Stations






























Interactive Weather Map
Tropical Storm Tracking
New forecast layout! Learn more

10-Day Weather Forecast

Advertisements
Track Severe Weather on mobile